createdAt,value
2019-05-21T00:02:14.332Z,13.93
2019-05-21T00:04:43.466Z,14.01
2019-05-21T00:07:12.450Z,14.00
2019-05-21T00:09:41.489Z,13.96
2019-05-21T00:12:10.423Z,13.90
2019-05-21T00:14:39.402Z,13.93
2019-05-21T00:17:08.288Z,13.93
2019-05-21T00:19:37.409Z,13.95
2019-05-21T00:22:06.377Z,13.94
2019-05-21T00:24:35.530Z,13.90
2019-05-21T00:27:04.528Z,13.82
2019-05-21T00:30:09.548Z,13.89
2019-05-21T00:33:14.703Z,13.88
2019-05-21T00:36:21.153Z,13.89
2019-05-21T00:39:26.082Z,13.85
2019-05-21T00:42:00.083Z,13.85
2019-05-21T00:44:31.509Z,13.82
2019-05-21T00:47:00.567Z,13.86
2019-05-21T00:49:29.783Z,13.78
2019-05-21T00:52:08.124Z,13.78
2019-05-21T00:54:30.349Z,13.77
2019-05-21T00:56:59.502Z,13.79
2019-05-21T00:59:28.576Z,13.75
2019-05-21T01:01:57.600Z,13.78
2019-05-21T01:04:26.836Z,13.77
2019-05-21T01:06:55.816Z,13.74
2019-05-21T01:09:24.935Z,13.74
2019-05-21T01:11:54.108Z,13.75
2019-05-21T01:14:27.131Z,13.78
2019-05-21T01:16:56.235Z,13.78
2019-05-21T01:19:25.207Z,13.75
2019-05-21T01:21:54.142Z,13.71
2019-05-21T01:24:23.356Z,13.71
2019-05-21T01:26:52.522Z,13.72
2019-05-21T01:29:21.577Z,13.77
2019-05-21T01:31:50.588Z,13.76
2019-05-21T01:34:19.851Z,13.76
2019-05-21T01:36:49.425Z,13.76
2019-05-21T01:39:18.655Z,13.74
2019-05-21T01:41:47.683Z,13.81
2019-05-21T01:44:16.962Z,13.75
2019-05-21T01:46:46.278Z,13.73
2019-05-21T01:49:15.282Z,13.73
2019-05-21T01:51:44.122Z,13.72
2019-05-21T01:54:12.974Z,13.70
2019-05-21T01:56:42.042Z,13.70
2019-05-21T01:59:11.045Z,13.70
2019-05-21T02:01:40.059Z,13.70
2019-05-21T02:04:09.169Z,13.69
2019-05-21T02:06:38.303Z,13.75
2019-05-21T02:09:08.614Z,13.73
2019-05-21T02:11:37.414Z,13.72
2019-05-21T02:14:09.365Z,13.70
2019-05-21T02:16:38.301Z,13.40
2019-05-21T02:19:07.556Z,13.49
2019-05-21T02:21:36.501Z,13.47
2019-05-21T02:24:05.587Z,13.38
2019-05-21T02:26:34.558Z,13.36
2019-05-21T02:29:04.134Z,13.32
2019-05-21T02:31:33.271Z,13.25
2019-05-21T02:34:02.121Z,13.23
2019-05-21T02:36:31.342Z,13.13
2019-05-21T02:39:00.378Z,13.09
2019-05-21T02:41:29.431Z,13.04
2019-05-21T02:43:58.337Z,12.99
2019-05-21T02:46:27.399Z,12.93
2019-05-21T02:48:59.609Z,13.00
2019-05-21T02:51:28.642Z,12.90
2019-05-21T02:53:57.798Z,12.89
2019-05-21T02:56:26.913Z,12.87
2019-05-21T02:58:56.021Z,12.90
2019-05-21T03:01:31.714Z,12.90
2019-05-21T03:04:00.766Z,12.93
2019-05-21T03:06:29.896Z,12.86
2019-05-21T03:08:58.920Z,12.78
2019-05-21T03:11:28.053Z,12.75
2019-05-21T03:13:57.146Z,12.75
2019-05-21T03:16:26.211Z,12.70
2019-05-21T03:18:55.191Z,12.69
2019-05-21T03:21:24.183Z,12.62
2019-05-21T03:23:53.220Z,12.62
2019-05-21T03:26:22.315Z,12.60
2019-05-21T03:28:51.233Z,12.62
2019-05-21T03:31:20.196Z,12.54
2019-05-21T03:33:49.207Z,12.50
2019-05-21T03:36:32.443Z,12.39
2019-05-21T03:38:48.904Z,12.37
2019-05-21T03:41:17.730Z,12.43
2019-05-21T03:43:46.943Z,12.44
2019-05-21T03:46:16.031Z,12.46
2019-05-21T03:48:45.319Z,12.41
2019-05-21T03:51:14.602Z,12.46
2019-05-21T03:53:43.532Z,12.45
2019-05-21T03:56:12.611Z,12.47
2019-05-21T03:58:41.593Z,12.43
2019-05-21T04:01:10.475Z,12.42
2019-05-21T04:03:39.291Z,12.42
2019-05-21T04:06:08.295Z,12.43
2019-05-21T04:08:37.291Z,12.34
2019-05-21T04:11:06.238Z,12.30
2019-05-21T04:13:35.121Z,12.28
2019-05-21T04:16:10.255Z,12.27
2019-05-21T04:18:46.655Z,12.22
2019-05-21T04:21:15.633Z,12.16
2019-05-21T04:23:44.647Z,12.15
2019-05-21T04:26:13.562Z,12.01
2019-05-21T04:28:42.495Z,12.12
2019-05-21T04:31:11.824Z,12.13
2019-05-21T04:33:40.732Z,12.10
2019-05-21T04:36:10.542Z,12.06
2019-05-21T04:38:39.721Z,12.06
2019-05-21T04:41:08.722Z,12.07
2019-05-21T04:43:37.598Z,12.05
2019-05-21T04:46:06.652Z,11.99
2019-05-21T04:48:35.491Z,11.93
2019-05-21T04:51:04.488Z,11.94
2019-05-21T04:53:33.303Z,11.92
2019-05-21T04:56:02.261Z,11.92
2019-05-21T04:58:31.112Z,11.93
2019-05-21T05:01:00.090Z,11.93
2019-05-21T05:03:29.071Z,11.92
2019-05-21T05:05:57.898Z,11.94
2019-05-21T05:08:26.915Z,11.89
2019-05-21T05:10:55.816Z,11.85
2019-05-21T05:13:24.654Z,11.88
2019-05-21T05:15:53.722Z,11.92
2019-05-21T05:18:22.683Z,11.88
2019-05-21T05:20:51.582Z,11.85
2019-05-21T05:23:20.612Z,11.87
2019-05-21T05:25:49.578Z,11.93
2019-05-21T05:28:18.478Z,11.93
2019-05-21T05:30:47.551Z,11.88
2019-05-21T05:33:16.440Z,11.91
2019-05-21T05:35:45.306Z,11.92
2019-05-21T05:38:14.247Z,11.92
2019-05-21T05:40:43.210Z,11.94
2019-05-21T05:43:12.146Z,11.98
2019-05-21T05:45:41.098Z,12.01
2019-05-21T05:48:10.075Z,12.01
2019-05-21T05:50:41.030Z,12.05
2019-05-21T05:53:10.018Z,11.90
2019-05-21T05:55:39.035Z,12.02
2019-05-21T05:58:08.038Z,12.05
2019-05-21T06:00:37.409Z,12.08
2019-05-21T06:03:06.471Z,12.07
2019-05-21T06:05:35.490Z,11.83
2019-05-21T06:08:04.515Z,12.09
2019-05-21T06:10:33.470Z,12.11
2019-05-21T06:13:02.586Z,12.11
2019-05-21T06:15:33.725Z,12.17
2019-05-21T06:18:02.598Z,12.13
2019-05-21T06:20:32.242Z,12.12
2019-05-21T06:23:04.151Z,12.10
2019-05-21T06:25:41.672Z,12.20
2019-05-21T06:30:50.114Z,12.24
2019-05-21T06:33:19.003Z,12.30
2019-05-21T06:35:47.993Z,12.39
2019-05-21T06:38:18.357Z,12.43
2019-05-21T06:40:47.444Z,12.48
2019-05-21T06:43:16.485Z,12.25
2019-05-21T06:45:45.458Z,12.55
2019-05-21T06:48:14.292Z,12.57
2019-05-21T06:50:43.317Z,12.60
2019-05-21T06:53:12.382Z,12.60
2019-05-21T06:55:41.298Z,12.55
2019-05-21T06:58:10.265Z,12.53
2019-05-21T07:00:39.415Z,12.52
2019-05-21T07:03:08.403Z,12.28
2019-05-21T07:05:37.275Z,12.52
2019-05-21T07:08:06.250Z,12.52
2019-05-21T07:10:35.214Z,12.52
2019-05-21T07:13:04.275Z,12.58
2019-05-21T07:15:33.319Z,12.55
2019-05-21T07:18:02.209Z,12.58
2019-05-21T07:20:31.177Z,12.56
2019-05-21T07:23:00.170Z,12.56
2019-05-21T07:25:29.192Z,12.58
2019-05-21T07:27:58.106Z,12.62
2019-05-21T07:30:27.287Z,12.67
2019-05-21T07:32:56.335Z,12.62
2019-05-21T07:35:25.276Z,12.66
2019-05-21T07:37:54.189Z,12.67
2019-05-21T07:40:23.142Z,12.71
2019-05-21T07:42:51.983Z,12.81
2019-05-21T07:45:20.942Z,12.87
2019-05-21T07:47:49.823Z,12.90
2019-05-21T07:50:18.821Z,12.98
2019-05-21T07:52:47.680Z,13.03
2019-05-21T07:55:16.700Z,13.10
2019-05-21T07:57:45.714Z,13.10
2019-05-21T08:00:17.842Z,13.08
2019-05-21T08:02:46.681Z,13.06
2019-05-21T08:05:15.644Z,13.07
2019-05-21T08:07:44.829Z,13.05
2019-05-21T08:10:14.021Z,13.08
2019-05-21T08:12:43.041Z,13.10
2019-05-21T08:15:12.744Z,13.19
2019-05-21T08:17:41.761Z,13.21
2019-05-21T08:20:12.386Z,13.21
2019-05-21T08:22:41.300Z,13.21
2019-05-21T08:25:14.120Z,13.28
2019-05-21T08:27:41.019Z,13.32
2019-05-21T08:30:10.552Z,13.23
2019-05-21T08:32:39.388Z,13.12
2019-05-21T08:35:08.670Z,13.09
2019-05-21T08:37:37.643Z,12.99
2019-05-21T08:40:06.982Z,12.96
2019-05-21T08:42:36.091Z,12.86
2019-05-21T08:45:06.158Z,12.89
2019-05-21T08:47:35.277Z,12.81
2019-05-21T08:50:04.907Z,12.71
2019-05-21T08:52:33.884Z,12.62
2019-05-21T08:55:02.804Z,12.62
2019-05-21T08:57:32.137Z,12.57
2019-05-21T09:00:01.087Z,12.48
2019-05-21T09:02:30.122Z,12.36
2019-05-21T09:04:59.035Z,12.32
2019-05-21T09:07:28.529Z,12.35
2019-05-21T09:09:57.519Z,12.36
2019-05-21T09:12:26.431Z,12.37
2019-05-21T09:14:55.247Z,12.37
2019-05-21T09:17:24.266Z,12.29
2019-05-21T09:19:53.174Z,12.30
2019-05-21T09:22:24.484Z,12.26
2019-05-21T09:24:53.556Z,12.20
2019-05-21T09:27:22.452Z,12.24
2019-05-21T09:29:51.446Z,12.25
2019-05-21T09:32:20.362Z,12.28
2019-05-21T09:34:49.621Z,12.30
2019-05-21T09:37:20.295Z,12.31
2019-05-21T09:39:49.185Z,12.29
2019-05-21T09:42:18.170Z,12.36
2019-05-21T09:44:46.958Z,12.37
2019-05-21T09:47:15.962Z,12.39
2019-05-21T09:49:44.919Z,12.51
2019-05-21T09:52:13.875Z,12.58
2019-05-21T09:54:42.744Z,12.64
2019-05-21T09:57:13.595Z,12.70
2019-05-21T09:59:50.541Z,12.84
2019-05-21T10:02:24.962Z,12.89
2019-05-21T10:04:53.994Z,13.02
2019-05-21T10:07:38.070Z,13.11
2019-05-21T10:09:53.722Z,13.11
2019-05-21T10:12:22.649Z,13.21
2019-05-21T10:14:51.444Z,13.18
2019-05-21T10:17:20.280Z,13.23
2019-05-21T10:19:49.154Z,13.28
2019-05-21T10:22:18.103Z,13.38
2019-05-21T10:24:47.104Z,13.43
2019-05-21T10:27:16.182Z,13.45
2019-05-21T10:29:45.068Z,13.53
2019-05-21T10:32:13.996Z,13.69
2019-05-21T10:34:42.953Z,13.66
2019-05-21T10:37:11.944Z,13.99
2019-05-21T10:39:40.913Z,14.05
2019-05-21T10:42:09.940Z,14.05
2019-05-21T10:44:38.973Z,13.99
2019-05-21T10:47:08.109Z,14.16
2019-05-21T10:49:37.111Z,14.43
2019-05-21T10:52:06.139Z,14.38
2019-05-21T10:54:35.106Z,14.61
2019-05-21T10:57:04.199Z,14.52
2019-05-21T10:59:33.273Z,14.36
2019-05-21T11:02:12.470Z,14.42
2019-05-21T11:05:03.375Z,14.26
2019-05-21T11:07:32.271Z,14.15
2019-05-21T11:10:01.231Z,14.29
2019-05-21T11:12:30.324Z,14.42
2019-05-21T11:14:59.350Z,14.74
2019-05-21T11:17:28.332Z,15.01
2019-05-21T11:19:57.211Z,14.89
2019-05-21T11:22:26.160Z,15.19
2019-05-21T11:24:54.974Z,15.30
2019-05-21T11:27:24.143Z,15.10
2019-05-21T11:29:53.130Z,14.85
2019-05-21T11:32:21.970Z,14.97
2019-05-21T11:34:50.957Z,14.36
2019-05-21T11:37:19.861Z,13.61
2019-05-21T11:39:48.946Z,13.43
2019-05-21T11:42:18.980Z,13.40
2019-05-21T11:44:47.855Z,13.37
2019-05-21T11:47:16.845Z,13.29
2019-05-21T11:49:45.843Z,13.04
2019-05-21T11:52:14.737Z,12.90
2019-05-21T11:54:43.601Z,12.89
2019-05-21T11:57:12.482Z,12.83
2019-05-21T11:59:41.455Z,12.87
2019-05-21T12:02:10.967Z,12.89
2019-05-21T12:04:39.845Z,12.83
2019-05-21T12:07:08.901Z,12.85
2019-05-21T12:09:37.905Z,12.78
2019-05-21T12:12:06.869Z,12.85
2019-05-21T12:14:35.741Z,12.84
2019-05-21T12:17:04.693Z,12.89
2019-05-21T12:19:33.647Z,12.91
2019-05-21T12:22:02.628Z,13.01
2019-05-21T12:24:31.614Z,12.94
2019-05-21T12:27:00.589Z,12.96
2019-05-21T12:29:29.656Z,12.92
2019-05-21T12:31:58.571Z,13.03
2019-05-21T12:34:27.543Z,13.07
2019-05-21T12:36:56.385Z,13.09
2019-05-21T12:39:25.218Z,13.18
2019-05-21T12:41:54.180Z,13.08
2019-05-21T12:44:23.222Z,13.03
2019-05-21T12:46:52.189Z,13.03
2019-05-21T12:49:21.265Z,12.97
2019-05-21T12:51:50.224Z,13.02
2019-05-21T12:54:19.147Z,13.03
2019-05-21T12:56:48.003Z,12.97
2019-05-21T12:59:16.843Z,12.95
2019-05-21T13:01:46.166Z,12.98
2019-05-21T13:04:14.963Z,12.98
2019-05-21T13:06:43.843Z,13.00
2019-05-21T13:09:12.862Z,13.12
2019-05-21T13:11:41.767Z,13.04
2019-05-21T13:14:14.881Z,13.15
2019-05-21T13:16:41.532Z,13.01
2019-05-21T13:19:11.392Z,13.02
2019-05-21T13:21:40.490Z,13.08
2019-05-21T13:24:09.472Z,13.12
2019-05-21T13:26:38.467Z,13.08
2019-05-21T13:29:07.473Z,13.06
2019-05-21T13:31:36.359Z,13.07
2019-05-21T13:34:05.395Z,13.06
2019-05-21T13:36:34.405Z,13.06
2019-05-21T13:39:05.272Z,13.04
2019-05-21T13:41:34.273Z,13.01
2019-05-21T13:44:03.202Z,13.01
2019-05-21T13:46:35.412Z,12.70
2019-05-21T13:49:02.905Z,12.87
2019-05-21T13:51:31.910Z,12.90
2019-05-21T13:54:00.938Z,12.92
2019-05-21T13:56:29.929Z,12.93
2019-05-21T13:58:58.871Z,12.90
2019-05-21T14:01:40.204Z,12.89
2019-05-21T14:03:58.710Z,12.85
2019-05-21T14:06:27.655Z,12.83
2019-05-21T14:08:56.635Z,12.85
2019-05-21T14:11:25.740Z,12.81
2019-05-21T14:13:54.700Z,12.82
2019-05-21T14:16:23.928Z,12.88
2019-05-21T14:18:53.078Z,12.86
2019-05-21T14:21:22.055Z,12.83
2019-05-21T14:23:50.884Z,12.85
2019-05-21T14:26:19.918Z,12.96
2019-05-21T14:28:48.943Z,12.81
2019-05-21T14:31:19.758Z,13.13
2019-05-21T14:33:48.898Z,13.06
2019-05-21T14:36:17.948Z,13.19
2019-05-21T14:38:46.863Z,13.11
2019-05-21T14:41:16.012Z,13.12
2019-05-21T14:43:44.978Z,13.20
2019-05-21T14:46:13.978Z,13.16
2019-05-21T14:48:42.962Z,13.01
2019-05-21T14:51:13.601Z,13.01
2019-05-21T14:53:42.648Z,13.17
2019-05-21T14:56:11.628Z,13.19
2019-05-21T14:58:40.554Z,13.15
2019-05-21T15:01:09.418Z,13.12
2019-05-21T15:03:38.482Z,13.06
2019-05-21T15:06:07.428Z,13.11
2019-05-21T15:08:37.633Z,13.17
2019-05-21T15:11:06.682Z,12.97
2019-05-21T15:13:35.559Z,13.21
2019-05-21T15:16:04.510Z,13.25
2019-05-21T15:18:33.457Z,13.24
2019-05-21T15:21:10.404Z,13.11
2019-05-21T15:23:40.889Z,13.12
2019-05-21T15:26:10.565Z,13.13
2019-05-21T15:28:39.438Z,13.12
2019-05-21T15:31:08.370Z,13.12
2019-05-21T15:33:37.387Z,13.05
2019-05-21T15:36:06.699Z,13.07
2019-05-21T15:38:49.470Z,13.07
2019-05-21T15:41:11.765Z,13.07
2019-05-21T15:43:36.969Z,13.07
2019-05-21T15:46:06.243Z,13.11
2019-05-21T15:48:35.237Z,13.07
2019-05-21T15:51:04.139Z,13.02
2019-05-21T15:53:33.063Z,12.96
2019-05-21T15:56:01.930Z,13.03
2019-05-21T15:58:30.867Z,13.02
2019-05-21T16:00:59.745Z,12.95
2019-05-21T16:03:28.733Z,12.90
2019-05-21T16:05:57.671Z,12.92
2019-05-21T16:08:26.669Z,12.95
2019-05-21T16:10:55.649Z,12.89
2019-05-21T16:13:24.625Z,12.96
2019-05-21T16:15:53.937Z,12.88
2019-05-21T16:18:23.002Z,12.84
2019-05-21T16:20:52.028Z,12.83
2019-05-21T16:23:20.852Z,12.89
2019-05-21T16:25:49.849Z,12.85
2019-05-21T16:28:18.785Z,12.83
2019-05-21T16:30:47.786Z,12.84
2019-05-21T16:33:16.776Z,12.79
2019-05-21T16:35:45.690Z,12.77
2019-05-21T16:38:14.670Z,12.73
2019-05-21T16:40:44.127Z,12.73
2019-05-21T16:43:13.129Z,12.73
2019-05-21T16:45:42.136Z,12.74
2019-05-21T16:48:11.412Z,12.70
2019-05-21T16:50:40.481Z,12.71
2019-05-21T16:53:09.484Z,12.72
2019-05-21T16:55:38.438Z,12.71
2019-05-21T16:58:07.440Z,12.72
2019-05-21T17:00:36.412Z,12.74
2019-05-21T17:03:05.617Z,12.76
2019-05-21T17:05:34.759Z,12.70
2019-05-21T17:08:03.884Z,12.69
2019-05-21T17:10:32.900Z,12.66
2019-05-21T17:13:01.853Z,12.66
2019-05-21T17:15:30.763Z,12.68
2019-05-21T17:17:59.565Z,12.69
2019-05-21T17:20:28.613Z,12.73
2019-05-21T17:22:57.559Z,12.71
2019-05-21T17:25:26.544Z,12.68
2019-05-21T17:27:55.399Z,12.61
2019-05-21T17:30:24.418Z,12.62
2019-05-21T17:32:53.331Z,12.61
2019-05-21T17:35:22.364Z,12.60
2019-05-21T17:37:51.413Z,12.55
2019-05-21T17:40:20.456Z,12.58
2019-05-21T17:42:49.623Z,12.64
2019-05-21T17:45:18.672Z,12.66
2019-05-21T17:47:47.677Z,12.69
2019-05-21T17:50:18.243Z,12.64
2019-05-21T17:52:47.836Z,12.62
2019-05-21T17:55:17.050Z,12.59
2019-05-21T17:57:46.411Z,12.72
2019-05-21T18:00:19.370Z,12.69
2019-05-21T18:02:48.289Z,12.67
2019-05-21T18:05:18.796Z,12.78
2019-05-21T18:07:47.663Z,12.69
2019-05-21T18:10:17.782Z,12.84
2019-05-21T18:12:47.233Z,12.75
2019-05-21T18:15:16.610Z,12.71
2019-05-21T18:17:46.106Z,12.77
2019-05-21T18:20:18.092Z,12.79
2019-05-21T18:22:48.516Z,12.71
2019-05-21T18:25:17.918Z,12.68
2019-05-21T18:27:48.718Z,12.69
2019-05-21T18:30:18.225Z,12.74
2019-05-21T18:32:47.457Z,12.73
2019-05-21T18:35:16.775Z,12.78
2019-05-21T18:37:45.610Z,12.83
2019-05-21T18:40:15.470Z,12.83
2019-05-21T18:42:44.422Z,12.76
2019-05-21T18:45:13.757Z,12.82
2019-05-21T18:47:42.761Z,12.79
2019-05-21T18:50:12.142Z,12.83
2019-05-21T18:52:41.038Z,12.84
2019-05-21T18:55:12.077Z,12.84
2019-05-21T18:57:41.204Z,12.88
2019-05-21T19:00:11.673Z,12.90
2019-05-21T19:02:41.465Z,12.88
2019-05-21T19:05:10.995Z,12.89
2019-05-21T19:07:40.517Z,12.90
2019-05-21T19:10:10.571Z,12.94
2019-05-21T19:12:39.898Z,12.98
2019-05-21T19:15:09.972Z,13.06
2019-05-21T19:17:38.975Z,13.01
2019-05-21T19:20:08.346Z,13.01
2019-05-21T19:22:38.992Z,13.00
2019-05-21T19:25:08.294Z,13.11
2019-05-21T19:27:37.719Z,13.03
2019-05-21T19:30:07.572Z,13.06
2019-05-21T19:32:36.608Z,13.02
2019-05-21T19:35:06.286Z,12.97
2019-05-21T19:37:35.300Z,13.08
2019-05-21T19:40:04.900Z,13.10
2019-05-21T19:42:33.934Z,13.12
2019-05-21T19:45:03.782Z,13.05
2019-05-21T19:47:32.775Z,13.09
2019-05-21T19:50:01.797Z,13.16
2019-05-21T19:52:30.796Z,13.17
2019-05-21T19:54:59.614Z,13.07
2019-05-21T19:57:30.324Z,13.11
2019-05-21T19:59:59.125Z,13.09
2019-05-21T20:02:29.999Z,13.08
2019-05-21T20:04:59.987Z,13.11
2019-05-21T20:07:29.565Z,13.13
2019-05-21T20:09:59.231Z,13.21
2019-05-21T20:12:28.501Z,13.16
2019-05-21T20:14:57.805Z,13.10
2019-05-21T20:17:28.366Z,13.16
2019-05-21T20:19:58.051Z,13.12
2019-05-21T20:22:27.360Z,13.21
2019-05-21T20:24:56.882Z,13.22
2019-05-21T20:27:26.979Z,13.27
2019-05-21T20:30:11.338Z,13.23
2019-05-21T20:32:27.149Z,13.19
2019-05-21T20:34:56.212Z,13.24
2019-05-21T20:37:26.873Z,13.20
2019-05-21T20:39:57.006Z,13.16
2019-05-21T20:42:28.896Z,13.21
2019-05-21T20:44:58.102Z,13.18
2019-05-21T20:47:27.228Z,13.23
2019-05-21T20:49:57.314Z,13.21
2019-05-21T20:52:26.710Z,13.22
2019-05-21T20:54:57.102Z,13.12
2019-05-21T20:57:27.178Z,13.16
2019-05-21T20:59:56.672Z,13.22
2019-05-21T21:02:26.354Z,13.21
2019-05-21T21:04:55.861Z,13.23
2019-05-21T21:07:25.024Z,13.24
2019-05-21T21:09:54.055Z,13.22
2019-05-21T21:12:23.954Z,13.24
2019-05-21T21:14:53.406Z,13.23
2019-05-21T21:17:23.291Z,13.28
2019-05-21T21:19:52.236Z,13.30
2019-05-21T21:22:21.192Z,13.24
2019-05-21T21:24:50.369Z,13.24
2019-05-21T21:27:20.080Z,13.33
2019-05-21T21:29:49.441Z,13.34
2019-05-21T21:32:19.180Z,13.22
2019-05-21T21:34:48.815Z,13.20
2019-05-21T21:37:18.340Z,13.14
2019-05-21T21:39:47.423Z,13.28
2019-05-21T21:42:16.678Z,13.17
2019-05-21T21:44:46.290Z,13.06
2019-05-21T21:47:15.754Z,13.01
2019-05-21T21:49:44.921Z,13.06
2019-05-21T21:52:15.014Z,13.06
2019-05-21T21:54:45.332Z,13.03
2019-05-21T21:57:14.615Z,13.09
2019-05-21T21:59:43.741Z,13.15
2019-05-21T22:02:29.026Z,13.10
2019-05-21T22:04:59.611Z,13.06
2019-05-21T22:07:29.630Z,13.10
2019-05-21T22:09:58.982Z,13.07
2019-05-21T22:12:28.013Z,13.10
2019-05-21T22:15:01.825Z,13.11
2019-05-21T22:17:31.008Z,13.00
2019-05-21T22:20:00.103Z,13.02
2019-05-21T22:22:29.765Z,12.92
2019-05-21T22:24:58.911Z,13.10
2019-05-21T22:27:27.793Z,12.96
2019-05-21T22:29:56.778Z,12.98
2019-05-21T22:32:26.712Z,13.02
2019-05-21T22:34:55.688Z,12.96
2019-05-21T22:37:26.440Z,12.92
2019-05-21T22:39:55.387Z,12.87
2019-05-21T22:42:25.247Z,12.77
2019-05-21T22:45:07.541Z,12.77
2019-05-21T22:47:25.706Z,12.77
2019-05-21T22:49:54.836Z,12.76
2019-05-21T22:52:23.913Z,12.96
2019-05-21T22:54:52.896Z,12.86
2019-05-21T22:57:21.842Z,12.83
2019-05-21T22:59:50.809Z,12.84
2019-05-21T23:02:24.299Z,12.89
2019-05-21T23:04:53.912Z,12.81
2019-05-21T23:07:23.142Z,12.83
2019-05-21T23:09:52.975Z,12.80
2019-05-21T23:12:21.954Z,12.78
2019-05-21T23:14:51.840Z,12.83
2019-05-21T23:17:21.179Z,12.87
2019-05-21T23:19:50.701Z,12.88
2019-05-21T23:22:22.611Z,12.96
2019-05-21T23:24:51.521Z,12.88
2019-05-21T23:27:21.637Z,12.85
2019-05-21T23:29:50.851Z,12.96
2019-05-21T23:32:20.739Z,12.92
2019-05-21T23:34:53.477Z,12.82
2019-05-21T23:37:25.621Z,12.83
2019-05-21T23:39:55.679Z,12.87
2019-05-21T23:42:29.369Z,12.79
2019-05-21T23:44:55.880Z,12.80
2019-05-21T23:47:25.090Z,12.83
2019-05-21T23:49:54.424Z,12.85
2019-05-21T23:52:23.926Z,12.89
2019-05-21T23:54:52.804Z,12.83
2019-05-21T23:57:27.746Z,12.84
2019-05-21T23:59:57.322Z,12.81
